Time;durP1;ratioP1;P1;durP2;ratioP2;P2;SDS_P1;SDS_P2;PMS_P1;PMS_P2;Temp;Humidity;BMP_temperature;BMP_pressure;BME280_temperature;BME280_humidity;BME280_pressure;Samples;Min_cycle;Max_cycle;Signal;HPM_P1;HPM_P2
2023/07/05 00:00:58;;;;;;;4.60;2.67;;;;;;;16.75;82.36;100398.22;5012977;28;96796;-28
2023/07/05 00:03:24;;;;;;;9.63;2.45;;;;;;;16.76;82.48;100386.31;5013311;28;96819;-26
2023/07/05 00:05:49;;;;;;;5.10;2.33;;;;;;;16.81;82.89;100374.97;5011655;28;99464;-26
2023/07/05 00:08:14;;;;;;;3.53;2.28;;;;;;;16.80;83.84;100354.91;5012893;28;99212;-27
2023/07/05 00:10:40;;;;;;;5.28;2.53;;;;;;;16.77;83.52;100344.25;5011602;28;96635;-26
2023/07/05 00:13:05;;;;;;;3.88;2.30;;;;;;;16.74;82.68;100337.22;5013280;28;96807;-26
2023/07/05 00:15:31;;;;;;;5.18;2.42;;;;;;;16.66;85.61;100319.78;5012542;28;99210;-26
2023/07/05 00:17:58;;;;;;;5.13;2.33;;;;;;;16.63;85.36;100298.22;5011323;28;101032;-26
2023/07/05 00:20:24;;;;;;;5.60;2.25;;;;;;;16.68;86.02;100317.78;5010809;28;98046;-26
2023/07/05 00:22:50;;;;;;;7.90;2.83;;;;;;;16.61;85.04;100303.81;5011293;28;97140;-26
2023/07/05 00:25:16;;;;;;;4.13;2.22;;;;;;;16.59;88.05;100275.78;5011256;28;99619;-26
2023/07/05 00:27:41;;;;;;;5.80;2.30;;;;;;;16.66;87.54;100262.38;5012435;28;97812;-26
2023/07/05 00:30:07;;;;;;;3.97;2.38;;;;;;;16.63;87.63;100265.41;5012960;28;96604;-26
2023/07/05 00:32:33;;;;;;;7.55;2.30;;;;;;;16.66;86.32;100268.72;5012605;28;96829;-26
2023/07/05 00:34:58;;;;;;;4.03;2.08;;;;;;;16.60;88.11;100254.78;5012374;28;97835;-26
2023/07/05 00:37:23;;;;;;;4.00;2.03;;;;;;;16.53;87.31;100243.56;5012621;28;97348;-27
2023/07/05 00:39:49;;;;;;;4.70;2.30;;;;;;;16.56;88.45;100230.47;5012261;28;96703;-26
2023/07/05 00:42:14;;;;;;;3.85;1.77;;;;;;;16.58;87.23;100229.44;5012414;28;96899;-26
2023/07/05 00:44:41;;;;;;;4.72;2.05;;;;;;;16.56;88.66;100229.59;5011645;28;99322;-26
2023/07/05 00:47:12;;;;;;;4.28;2.20;;;;;;;16.47;88.13;100209.47;5012479;28;97772;-27
2023/07/05 00:49:37;;;;;;;3.92;1.77;;;;;;;16.48;88.63;100224.84;5011217;28;96622;-27
2023/07/05 00:52:11;;;;;;;3.85;1.55;;;;;;;16.42;91.64;100213.66;5012296;28;96819;-28
2023/07/05 00:54:46;;;;;;;6.85;1.70;;;;;;;16.44;89.89;100217.09;5010692;28;98979;-26
2023/07/05 00:57:20;;;;;;;3.42;1.45;;;;;;;16.44;89.53;100220.69;5012709;28;96656;-26
2023/07/05 00:59:54;;;;;;;4.38;1.65;;;;;;;16.39;91.51;100203.88;5012484;28;96520;-26
2023/07/05 01:02:20;;;;;;;2.88;1.58;;;;;;;16.43;90.40;100227.19;5011290;28;96746;-26
2023/07/05 01:04:45;;;;;;;5.88;1.88;;;;;;;16.44;91.54;100261.69;5012474;28;97604;-26
2023/07/05 01:07:10;;;;;;;1.73;0.90;;;;;;;16.37;92.91;100235.97;5011941;28;97750;-26
2023/07/05 01:09:38;;;;;;;1.77;0.75;;;;;;;16.37;94.35;100213.22;5011926;28;96645;-26
2023/07/05 01:12:23;;;;;;;3.38;0.98;;;;;;;16.38;92.47;100206.78;5010707;28;97099;-26
2023/07/05 01:15:18;;;;;;;1.67;0.85;;;;;;;16.42;91.01;100209.06;5011397;28;97999;-26
2023/07/05 01:18:01;;;;;;;1.70;1.05;;;;;;;16.40;89.50;100212.94;5008995;28;101067;-26
2023/07/05 01:20:39;;;;;;;4.65;0.98;;;;;;;16.32;88.45;100205.47;5010677;28;96700;-26
2023/07/05 01:23:04;;;;;;;1.17;0.70;;;;;;;16.34;88.29;100208.94;5010700;28;96786;-26
2023/07/05 01:25:29;;;;;;;0.93;0.52;;;;;;;16.34;88.64;100203.47;5011642;28;99233;-26
2023/07/05 01:28:13;;;;;;;2.03;0.68;;;;;;;16.33;87.28;100199.88;5011946;28;97856;-26
2023/07/05 01:30:48;;;;;;;1.40;0.63;;;;;;;16.34;87.19;100208.94;5010455;28;96749;-26
2023/07/05 01:33:28;;;;;;;5.57;1.00;;;;;;;16.29;87.22;100224.91;5010592;28;96755;-28
2023/07/05 01:35:55;;;;;;;2.03;1.15;;;;;;;16.24;86.71;100222.63;5010897;28;99755;-26
2023/07/05 01:38:20;;;;;;;1.27;0.60;;;;;;;16.20;85.90;100233.97;5011126;28;97893;-27
2023/07/05 01:40:52;;;;;;;1.77;0.75;;;;;;;16.13;86.57;100234.56;5011698;28;96503;-26
2023/07/05 01:43:18;;;;;;;2.35;0.73;;;;;;;16.08;85.67;100234.13;5010515;28;96737;-26
2023/07/05 02:12:37;;;;;;;1.13;0.57;;;;;;;15.32;88.26;100243.97;5013045;28;97043;-26
2023/07/05 02:15:03;;;;;;;1.92;1.13;;;;;;;15.29;88.25;100245.09;5014856;28;98239;-26
2023/07/05 02:17:28;;;;;;;1.63;1.02;;;;;;;15.28;87.66;100243.41;5014703;28;96530;-27
2023/07/05 02:19:54;;;;;;;1.33;0.90;;;;;;;15.26;87.40;100248.97;5014970;28;96789;-26
2023/07/05 02:22:19;;;;;;;1.20;0.57;;;;;;;15.27;87.37;100256.16;5014660;28;98117;-26
2023/07/05 02:24:46;;;;;;;1.48;1.13;;;;;;;15.21;87.45;100244.97;5015188;28;97678;-26
2023/07/05 02:27:11;;;;;;;2.75;1.17;;;;;;;15.18;87.19;100243.38;5013272;28;96743;-26
2023/07/05 02:29:37;;;;;;;2.75;1.33;;;;;;;15.14;87.11;100252.81;5014868;28;96889;-26
2023/07/05 02:32:02;;;;;;;2.90;1.23;;;;;;;15.06;86.36;100247.19;5014162;28;97611;-26
2023/07/05 02:34:29;;;;;;;2.67;1.05;;;;;;;15.06;86.48;100236.28;5014005;28;98763;-26
2023/07/05 02:36:54;;;;;;;1.55;0.85;;;;;;;15.05;86.07;100243.59;5012566;28;96843;-26
2023/07/05 02:39:19;;;;;;;2.55;1.05;;;;;;;15.04;85.49;100238.28;5012927;28;96844;-28
2023/07/05 02:41:45;;;;;;;2.33;1.02;;;;;;;14.98;85.59;100238.84;5014467;28;97806;-26
2023/07/05 02:44:10;;;;;;;1.77;1.13;;;;;;;14.92;86.11;100242.09;5014284;28;97892;-26
2023/07/05 02:46:36;;;;;;;2.70;1.00;;;;;;;14.89;85.54;100228.75;5014330;28;96461;-26
2023/07/05 02:49:02;;;;;;;1.70;0.90;;;;;;;14.86;85.63;100225.31;5014627;28;96858;-26
2023/07/05 02:51:28;;;;;;;1.88;1.10;;;;;;;14.83;86.12;100233.75;5012564;28;101268;-26
2023/07/05 02:53:54;;;;;;;1.65;0.73;;;;;;;14.76;85.86;100229.00;5014269;28;97329;-26
2023/07/05 02:56:20;;;;;;;2.53;1.10;;;;;;;14.75;85.55;100229.97;5012336;28;97245;-26
2023/07/05 02:58:46;;;;;;;3.40;1.10;;;;;;;14.71;85.30;100229.41;5012878;28;97349;-26
2023/07/05 03:01:11;;;;;;;2.42;1.17;;;;;;;14.74;85.67;100228.28;5013969;28;99206;-26
2023/07/05 03:03:36;;;;;;;2.00;1.15;;;;;;;14.72;85.50;100222.09;5014016;28;96920;-26
2023/07/05 03:06:02;;;;;;;2.92;1.20;;;;;;;14.68;85.07;100226.94;5014145;28;96652;-26
2023/07/05 03:08:28;;;;;;;2.25;1.10;;;;;;;14.64;85.87;100225.50;5012610;28;96823;-28
2023/07/05 03:11:00;;;;;;;1.30;0.80;;;;;;;14.66;86.01;100226.22;5013941;28;97977;-26
2023/07/05 03:13:32;;;;;;;6.85;1.30;;;;;;;14.65;85.30;100221.75;5012784;28;100855;-26
2023/07/05 03:15:58;;;;;;;1.85;1.08;;;;;;;14.62;85.11;100220.19;5012964;28;96624;-26
2023/07/05 03:18:24;;;;;;;2.95;1.10;;;;;;;14.56;85.48;100212.56;5011964;28;96817;-25
2023/07/05 03:20:50;;;;;;;3.90;1.50;;;;;;;14.58;85.65;100207.81;5011821;28;100918;-26
2023/07/05 03:23:16;;;;;;;3.33;1.10;;;;;;;14.58;85.57;100204.22;5013825;28;97847;-25
2023/07/05 03:25:52;;;;;;;4.75;2.00;;;;;;;14.68;85.60;100216.03;5012309;28;96560;-26
2023/07/05 03:28:18;;;;;;;3.67;1.27;;;;;;;14.67;84.71;100217.03;5012476;28;96657;-26
2023/07/05 03:30:51;;;;;;;2.38;1.30;;;;;;;14.60;84.81;100205.81;5014056;28;97241;-26
2023/07/05 03:33:17;;;;;;;2.88;1.20;;;;;;;14.59;84.73;100211.44;5013744;28;97764;-26
2023/07/05 03:35:42;;;;;;;3.10;1.40;;;;;;;14.55;84.91;100182.72;5013445;28;96589;-26
2023/07/05 03:38:08;;;;;;;1.85;0.98;;;;;;;14.58;84.91;100221.44;5013413;28;96879;-26
2023/07/05 03:40:33;;;;;;;2.17;1.20;;;;;;;14.57;85.00;100191.63;5013143;28;99150;-26
2023/07/05 03:42:58;;;;;;;2.42;1.00;;;;;;;14.55;84.46;100190.88;5012936;28;110130;-26
2023/07/05 03:45:24;;;;;;;1.52;1.00;;;;;;;14.53;84.68;100198.28;5013102;28;96480;-26
2023/07/05 03:47:49;;;;;;;2.90;1.10;;;;;;;14.58;84.52;100194.19;5013550;28;96797;-26
2023/07/05 03:50:14;;;;;;;1.25;0.82;;;;;;;14.55;84.25;100185.44;5013072;28;106263;-26
2023/07/05 03:52:40;;;;;;;2.85;1.27;;;;;;;14.56;84.50;100189.88;5013009;28;105506;-26
2023/07/05 03:55:05;;;;;;;1.83;1.10;;;;;;;14.52;84.06;100177.50;5013369;28;96554;-26
2023/07/05 03:57:31;;;;;;;3.33;1.50;;;;;;;14.50;84.94;100180.34;5013493;28;96668;-26
2023/07/05 03:59:56;;;;;;;3.20;1.08;;;;;;;14.50;85.60;100182.22;5013233;28;97562;-28
2023/07/05 04:02:21;;;;;;;2.78;1.25;;;;;;;14.47;85.32;100186.09;5013291;28;97816;-26
2023/07/05 04:04:47;;;;;;;2.65;1.25;;;;;;;14.47;86.61;100193.38;5012081;28;96522;-26
2023/07/05 04:07:12;;;;;;;3.35;1.48;;;;;;;14.42;86.58;100205.56;5012996;28;96877;-26
2023/07/05 04:09:38;;;;;;;1.80;1.05;;;;;;;14.32;87.85;100215.53;5012680;28;97543;-26
2023/07/05 04:12:03;;;;;;;4.13;1.20;;;;;;;14.38;89.02;100222.31;5013079;28;97604;-26
2023/07/05 04:14:29;;;;;;;5.82;1.52;;;;;;;14.35;89.05;100233.47;5012739;28;96494;-26
2023/07/05 04:16:55;;;;;;;1.55;0.80;;;;;;;14.35;89.68;100241.63;5012954;28;96850;-26
2023/07/05 04:19:20;;;;;;;2.90;0.90;;;;;;;14.27;89.86;100238.72;5013024;28;97851;-26
2023/07/05 04:21:45;;;;;;;2.25;0.82;;;;;;;14.20;89.19;100233.81;5012569;28;99437;-26
2023/07/05 04:24:11;;;;;;;1.27;0.45;;;;;;;14.16;88.97;100234.22;5013118;28;96531;-26
2023/07/05 04:26:36;;;;;;;1.17;0.45;;;;;;;14.16;89.56;100253.28;5013205;28;96833;-25
2023/07/05 04:29:01;;;;;;;4.22;0.50;;;;;;;14.16;90.06;100236.94;5012513;28;99385;-25
2023/07/05 04:31:29;;;;;;;2.03;0.70;;;;;;;14.18;89.00;100240.38;5012254;28;99302;-26
2023/07/05 04:33:56;;;;;;;0.95;0.47;;;;;;;14.15;89.46;100229.75;5010928;28;97015;-26
2023/07/05 04:36:21;;;;;;;0.28;0.20;;;;;;;14.12;89.46;100236.34;5011291;28;97242;-26
2023/07/05 04:38:47;;;;;;;1.85;0.55;;;;;;;14.10;89.56;100221.13;5012429;28;96994;-26
2023/07/05 04:41:12;;;;;;;1.85;0.50;;;;;;;14.17;89.06;100222.31;5012403;28;97893;-26
2023/07/05 04:43:38;;;;;;;2.67;0.43;;;;;;;14.13;89.96;100234.47;5012605;28;96487;-26
2023/07/05 04:46:03;;;;;;;1.92;0.68;;;;;;;14.20;89.82;100243.84;5012521;28;96828;-26
2023/07/05 04:48:30;;;;;;;1.70;0.60;;;;;;;14.16;89.39;100237.81;5012200;28;99268;-26
2023/07/05 04:50:57;;;;;;;0.85;0.40;;;;;;;14.08;89.46;100234.00;5012764;28;97926;-26
2023/07/05 04:53:24;;;;;;;2.20;0.90;;;;;;;14.15;89.78;100251.56;5012209;28;96550;-26
2023/07/05 04:55:52;;;;;;;3.40;0.90;;;;;;;14.11;90.46;100247.34;5010905;28;96849;-26
2023/07/05 04:58:18;;;;;;;2.20;0.90;;;;;;;14.19;89.32;100258.47;5010177;28;101505;-26
2023/07/05 05:00:49;;;;;;;1.88;0.75;;;;;;;14.22;89.47;100247.28;5010751;28;101105;-26
2023/07/05 05:03:22;;;;;;;1.23;0.68;;;;;;;14.16;88.90;100237.81;5011017;28;96633;-28
2023/07/05 05:05:50;;;;;;;1.67;0.95;;;;;;;14.15;88.73;100241.50;5010780;28;96882;-26
2023/07/05 05:08:16;;;;;;;1.77;0.60;;;;;;;14.13;88.09;100242.63;5010637;28;101383;-27
2023/07/05 05:10:41;;;;;;;7.20;1.38;;;;;;;14.14;89.08;100244.38;5012185;28;97778;-26
2023/07/05 05:13:07;;;;;;;2.60;0.88;;;;;;;14.03;88.26;100253.47;5012189;28;96564;-27
2023/07/05 05:15:37;;;;;;;5.43;0.90;;;;;;;13.97;88.25;100263.03;5011026;28;96755;-26
2023/07/05 05:18:03;;;;;;;3.03;1.15;;;;;;;13.90;87.30;100269.13;5011747;28;98994;-26
2023/07/05 05:20:30;;;;;;;1.77;0.85;;;;;;;13.80;87.36;100264.47;5010516;28;101271;-26
2023/07/05 05:22:56;;;;;;;2.60;0.68;;;;;;;13.76;88.13;100257.56;5010130;28;97463;-26
2023/07/05 05:25:21;;;;;;;1.23;0.80;;;;;;;13.72;87.05;100260.66;5010497;28;96773;-26
2023/07/05 05:27:47;;;;;;;1.35;0.60;;;;;;;13.72;87.28;100279.72;5011774;28;97428;-26
2023/07/05 05:30:12;;;;;;;7.20;0.77;;;;;;;13.62;85.91;100260.56;5011618;28;109416;-26
2023/07/05 05:32:38;;;;;;;3.20;0.77;;;;;;;13.59;84.96;100274.44;5011796;28;96592;-27
2023/07/05 05:35:03;;;;;;;2.33;0.77;;;;;;;13.52;85.39;100298.56;5011757;28;96789;-26
2023/07/05 05:37:29;;;;;;;1.85;0.60;;;;;;;13.54;85.90;100304.75;5011406;28;99732;-26
2023/07/05 05:39:54;;;;;;;0.95;0.45;;;;;;;13.48;86.50;100304.41;5012888;28;97749;-26
2023/07/05 05:42:19;;;;;;;2.63;0.80;;;;;;;13.39;86.28;100319.59;5015460;28;96659;-26
2023/07/05 05:44:45;;;;;;;3.38;0.88;;;;;;;13.28;86.95;100327.81;5015227;28;96806;-26
2023/07/05 05:47:10;;;;;;;2.40;0.80;;;;;;;13.21;87.18;100327.41;5014928;28;97387;-26
2023/07/05 05:49:36;;;;;;;2.65;0.50;;;;;;;13.21;88.21;100321.94;5015051;28;99138;-25
2023/07/05 05:52:01;;;;;;;1.48;0.73;;;;;;;13.12;88.52;100329.00;5015332;28;96717;-27
2023/07/05 05:54:27;;;;;;;2.90;0.50;;;;;;;13.08;88.63;100338.38;5015007;28;96919;-26
2023/07/05 05:56:52;;;;;;;1.80;0.70;;;;;;;12.93;88.65;100329.59;5015171;28;97934;-26
2023/07/05 05:59:17;;;;;;;1.48;0.50;;;;;;;13.02;89.24;100335.31;5014754;28;108916;-26
2023/07/05 06:01:44;;;;;;;2.78;0.45;;;;;;;12.94;89.07;100325.03;5014949;28;96685;-26
2023/07/05 06:04:10;;;;;;;3.05;0.60;;;;;;;12.89;89.04;100321.81;5015349;28;96833;-26
2023/07/05 06:06:36;;;;;;;1.40;0.45;;;;;;;12.93;89.42;100329.59;5013412;28;101097;-26
2023/07/05 06:09:01;;;;;;;4.22;0.60;;;;;;;12.86;89.94;100306.63;5014940;28;100367;-26
2023/07/05 06:11:26;;;;;;;3.25;0.73;;;;;;;12.83;89.41;100327.75;5014176;28;97890;-26
2023/07/05 06:13:52;;;;;;;1.75;0.80;;;;;;;12.85;89.02;100323.06;5014846;28;96819;-26
2023/07/05 06:16:17;;;;;;;0.73;0.38;;;;;;;12.80;89.17;100325.25;5014456;28;98909;-26
2023/07/05 06:18:43;;;;;;;0.90;0.43;;;;;;;12.72;88.78;100328.59;5014825;28;97847;-26
2023/07/05 06:21:11;;;;;;;1.10;0.32;;;;;;;12.71;88.76;100340.47;5013483;28;96739;-27
2023/07/05 06:23:36;;;;;;;1.40;1.00;;;;;;;12.68;89.49;100329.81;5015032;28;96746;-26
2023/07/05 06:26:01;;;;;;;1.25;0.43;;;;;;;12.67;90.62;100331.66;5014280;28;99490;-26
2023/07/05 06:28:27;;;;;;;2.60;0.75;;;;;;;12.61;90.85;100321.31;5014973;28;97993;-26
2023/07/05 06:30:52;;;;;;;3.15;0.70;;;;;;;12.69;90.95;100334.28;5014786;28;96704;-26
2023/07/05 06:33:18;;;;;;;2.92;0.55;;;;;;;12.69;91.18;100321.53;5014523;28;96860;-26
2023/07/05 06:35:50;;;;;;;6.53;0.52;;;;;;;12.78;91.71;100349.00;5013532;28;99245;-26
2023/07/05 06:38:16;;;;;;;1.10;0.60;;;;;;;12.81;92.10;100336.03;5012673;28;100758;-27
2023/07/05 06:40:41;;;;;;;1.58;0.47;;;;;;;12.79;91.36;100326.25;5014149;28;96674;-26
2023/07/05 06:43:07;;;;;;;0.73;0.60;;;;;;;12.85;92.11;100333.94;5013079;28;96844;-26
2023/07/05 06:45:33;;;;;;;2.25;1.00;;;;;;;12.92;91.77;100373.25;5014448;28;97501;-26
2023/07/05 06:47:59;;;;;;;2.03;0.45;;;;;;;12.90;93.18;100361.63;5012800;28;99103;-27
2023/07/05 06:50:24;;;;;;;5.30;1.08;;;;;;;12.92;93.46;100374.09;5013957;28;96527;-27
2023/07/05 06:52:50;;;;;;;2.58;1.00;;;;;;;12.97;92.79;100390.06;5014656;28;96814;-27
2023/07/05 06:55:15;;;;;;;3.35;1.10;;;;;;;13.03;93.43;100403.13;5013962;28;97902;-26
2023/07/05 06:57:40;;;;;;;2.17;0.73;;;;;;;13.05;93.89;100379.41;5013910;28;99118;-26
2023/07/05 07:00:07;;;;;;;3.55;1.20;;;;;;;13.07;93.05;100391.03;5013796;28;96798;-26
2023/07/05 07:02:32;;;;;;;1.65;0.82;;;;;;;13.09;93.80;100410.81;5012735;28;96946;-26
2023/07/05 07:04:58;;;;;;;3.67;1.10;;;;;;;13.13;93.03;100419.59;5013911;28;98904;-26
2023/07/05 07:07:24;;;;;;;0.73;0.73;;;;;;;13.14;93.56;100427.63;5014075;28;97765;-26
2023/07/05 07:09:49;;;;;;;3.88;0.88;;;;;;;13.15;93.55;100444.81;5012650;28;96502;-26
2023/07/05 07:12:15;;;;;;;5.32;1.13;;;;;;;13.15;93.15;100451.13;5014183;28;98056;-26
2023/07/05 07:14:40;;;;;;;2.50;1.00;;;;;;;13.09;93.39;100451.63;5014128;28;97292;-26
2023/07/05 07:17:05;;;;;;;2.15;1.00;;;;;;;13.09;93.08;100454.34;5014280;28;97728;-26
2023/07/05 07:19:31;;;;;;;3.40;1.20;;;;;;;13.13;93.55;100457.66;5014063;28;96731;-26
2023/07/05 07:21:56;;;;;;;3.65;1.05;;;;;;;13.09;94.01;100459.78;5013942;28;96758;-28
2023/07/05 07:24:22;;;;;;;2.35;0.77;;;;;;;13.14;93.90;100463.00;5012685;28;99818;-26
2023/07/05 07:26:47;;;;;;;2.13;1.05;;;;;;;13.12;92.42;100474.97;5013528;28;99087;-27
2023/07/05 07:29:12;;;;;;;1.27;0.77;;;;;;;13.19;92.13;100470.78;5013900;28;96666;-26
2023/07/05 07:31:38;;;;;;;5.85;1.25;;;;;;;13.20;92.92;100460.78;5013539;28;96860;-26
2023/07/05 07:34:05;;;;;;;2.50;1.20;;;;;;;13.29;92.49;100490.00;5013491;28;99337;-26
2023/07/05 07:36:31;;;;;;;3.63;1.10;;;;;;;13.29;92.60;100496.31;5013138;28;97296;-26
2023/07/05 07:38:58;;;;;;;2.80;1.30;;;;;;;13.31;91.74;100488.91;5011802;28;96647;-26
2023/07/05 07:41:25;;;;;;;5.32;1.00;;;;;;;13.37;92.07;100510.19;5013777;28;96768;-26
2023/07/05 07:43:57;;;;;;;2.58;1.27;;;;;;;13.34;91.60;100488.66;5011927;28;101083;-27
2023/07/05 07:46:25;;;;;;;;;;;;;;;13.36;91.78;100519.31;5013661;28;97272;-26
2023/07/05 07:48:53;;;;;;;1.25;0.85;;;;;;;13.35;92.14;100520.31;5013243;28;96473;-26
2023/07/05 07:51:19;;;;;;;6.25;1.13;;;;;;;13.38;91.68;100520.06;5013061;28;96758;-26
2023/07/05 07:53:44;;;;;;;3.72;1.17;;;;;;;13.40;92.69;100524.53;5011699;28;101286;-26
2023/07/05 07:56:18;;;;;;;2.08;1.20;;;;;;;13.44;91.22;100526.88;5013211;28;97355;-26
2023/07/05 07:58:47;;;;;;;4.07;0.98;;;;;;;13.54;90.83;100532.47;5011806;28;96688;-26
2023/07/05 08:01:19;;;;;;;4.50;1.48;;;;;;;13.54;90.55;100519.72;5011753;28;96916;-27
2023/07/05 08:03:45;;;;;;;2.88;0.60;;;;;;;13.59;90.82;100528.41;5010757;28;100878;-26
2023/07/05 08:06:11;;;;;;;2.33;1.00;;;;;;;13.69;90.01;100547.56;5011809;28;101234;-26
2023/07/05 08:08:39;;;;;;;5.57;1.27;;;;;;;13.71;90.88;100552.91;5011649;28;96672;-26
2023/07/05 08:11:07;;;;;;;3.13;1.48;;;;;;;13.75;90.52;100559.81;5011729;28;96819;-27
2023/07/05 08:13:32;;;;;;;1.88;1.10;;;;;;;13.84;89.61;100558.22;5011093;28;101341;-26
2023/07/05 08:15:58;;;;;;;1.30;0.80;;;;;;;13.85;89.63;100560.84;5012658;28;99299;-26
2023/07/05 08:18:23;;;;;;;2.88;0.80;;;;;;;13.91;89.46;100570.38;5011470;28;96562;-26
2023/07/05 08:20:49;;;;;;;3.60;1.15;;;;;;;14.02;89.72;100582.13;5012956;28;96825;-26
2023/07/05 08:23:14;;;;;;;3.80;1.10;;;;;;;14.15;89.43;100594.75;5012834;28;98184;-26
2023/07/05 08:25:40;;;;;;;2.33;0.98;;;;;;;14.22;89.00;100601.44;5012847;28;97929;-26
2023/07/05 08:28:05;;;;;;;5.85;1.00;;;;;;;14.20;88.24;100607.00;5012772;28;96508;-26
2023/07/05 08:30:33;;;;;;;3.63;1.13;;;;;;;14.35;87.72;100604.91;5013172;28;96942;-26
2023/07/05 08:32:58;;;;;;;3.58;0.77;;;;;;;14.42;87.88;100614.31;5011069;28;101335;-26
2023/07/05 08:35:24;;;;;;;1.60;0.73;;;;;;;14.51;86.70;100601.78;5012253;28;98994;-26
2023/07/05 08:37:49;;;;;;;4.68;0.73;;;;;;;14.66;86.63;100618.78;5012293;28;96829;-26
2023/07/05 08:40:17;;;;;;;2.30;0.77;;;;;;;14.79;86.27;100622.22;5012625;28;96929;-26
2023/07/05 08:43:17;;;;;;;2.90;1.13;;;;;;;14.88;85.04;100619.75;5011010;28;99865;-26
2023/07/05 08:45:45;;;;;;;3.75;0.88;;;;;;;15.00;84.50;100656.91;5012608;28;97861;-27
2023/07/05 08:48:15;;;;;;;1.48;0.77;;;;;;;15.08;83.61;100654.38;5011056;28;96747;-26
2023/07/05 08:50:44;;;;;;;9.57;1.52;;;;;;;15.03;83.57;100640.25;5010994;28;96937;-29
2023/07/05 08:53:18;;;;;;;4.43;1.40;;;;;;;15.04;83.74;100655.63;5010854;28;101574;-26
2023/07/05 08:56:15;;;;;;;4.93;1.05;;;;;;;15.22;82.87;100681.38;5012691;28;98085;-26
2023/07/05 08:58:43;;;;;;;5.93;1.33;;;;;;;15.36;83.88;100702.06;5010969;28;96599;-26
2023/07/05 09:01:26;;;;;;;2.35;1.13;;;;;;;15.42;82.24;100676.09;5010815;28;97080;-26
2023/07/05 09:03:52;;;;;;;1.75;0.90;;;;;;;15.63;82.72;100689.78;5011437;28;99811;-26
2023/07/05 09:06:24;;;;;;;2.10;0.70;;;;;;;15.68;81.80;100709.38;5012018;28;99321;-26
2023/07/05 09:09:17;;;;;;;1.42;0.90;;;;;;;15.71;81.52;100720.09;5010934;28;96760;-27
2023/07/05 09:11:46;;;;;;;2.50;1.13;;;;;;;15.81;81.74;100761.13;5012602;28;96727;-26
2023/07/05 09:14:31;;;;;;;2.75;1.08;;;;;;;15.71;79.74;100734.59;5011887;28;97980;-26
2023/07/05 09:17:01;;;;;;;6.47;1.13;;;;;;;15.73;79.22;100753.59;5010557;28;100869;-26
2023/07/05 09:20:10;;;;;;;3.75;1.10;;;;;;;15.95;79.09;100751.75;5010892;28;96670;-26
2023/07/05 09:22:38;;;;;;;3.70;0.80;;;;;;;16.08;77.67;100780.59;4999803;28;97091;-26
2023/07/05 09:25:08;;;;;;;3.72;0.65;;;;;;;16.09;77.94;100748.72;5010246;28;101233;-26
2023/07/05 09:27:39;;;;;;;4.68;0.90;;;;;;;16.07;77.83;100764.38;5011704;28;99378;-26
2023/07/05 09:30:10;;;;;;;4.63;1.13;;;;;;;16.08;77.16;100774.28;5011567;28;96548;-26
2023/07/05 09:32:41;;;;;;;1.90;0.98;;;;;;;16.10;78.47;100784.09;5011908;28;96673;-26
2023/07/05 09:35:18;;;;;;;7.10;1.33;;;;;;;16.21;77.53;100790.47;5010204;28;100967;-26
2023/07/05 09:37:55;;;;;;;4.60;0.88;;;;;;;16.36;77.06;100791.91;5010980;28;99203;-26
2023/07/05 09:40:25;;;;;;;4.25;1.13;;;;;;;16.39;76.33;100786.16;5010342;28;96796;-27
2023/07/05 09:42:58;;;;;;;2.95;1.05;;;;;;;16.34;76.55;100813.03;5010436;28;96728;-26
2023/07/05 09:45:25;;;;;;;1.95;0.80;;;;;;;16.29;76.50;100807.09;5011947;28;97886;-26
2023/07/05 09:47:57;;;;;;;3.88;0.77;;;;;;;16.32;76.09;100809.56;5010288;28;101164;-26
2023/07/05 09:50:23;;;;;;;2.22;1.00;;;;;;;16.29;75.69;100810.69;5010408;28;96538;-26
2023/07/05 09:52:51;;;;;;;3.30;0.95;;;;;;;16.30;75.64;100809.72;5011876;28;96770;-26
2023/07/05 09:55:19;;;;;;;6.13;1.10;;;;;;;16.36;76.18;100821.97;5009436;28;101103;-26
2023/07/05 09:57:45;;;;;;;1.20;0.47;;;;;;;16.44;75.25;100824.91;5011357;28;99188;-26
2023/07/05 10:00:31;;;;;;;10.63;1.00;;;;;;;16.71;74.96;100831.72;5010119;28;96585;-26
2023/07/05 10:03:06;;;;;;;2.17;0.77;;;;;;;16.73;74.19;100830.59;5011739;28;96591;-26
2023/07/05 10:05:31;;;;;;;1.15;0.75;;;;;;;16.93;74.66;100841.66;5009801;28;101398;-27
2023/07/05 10:08:00;;;;;;;1.35;0.55;;;;;;;16.93;73.51;100841.66;5011474;28;97771;-26
2023/07/05 10:10:32;;;;;;;1.92;0.70;;;;;;;16.86;72.07;100856.88;5010043;28;96612;-26
2023/07/05 10:13:03;;;;;;;3.55;1.00;;;;;;;16.87;72.25;100853.13;5010523;28;96713;-26
2023/07/05 10:15:28;;;;;;;3.65;1.08;;;;;;;17.29;70.09;100853.94;5009883;28;100828;-28
2023/07/05 10:17:55;;;;;;;4.18;1.20;;;;;;;17.67;70.63;100876.97;5011482;28;97835;-26
2023/07/05 10:20:41;;;;;;;4.20;1.10;;;;;;;17.87;69.20;100868.84;5009533;28;97302;-26
2023/07/05 10:23:16;;;;;;;6.22;2.25;;;;;;;17.74;68.86;100875.41;5011027;28;96508;-26
2023/07/05 10:25:41;;;;;;;2.47;1.00;;;;;;;17.56;69.62;100877.06;5010355;28;100904;-25
2023/07/05 10:28:12;;;;;;;2.70;0.70;;;;;;;17.31;68.71;100895.72;5014745;28;97871;-26
2023/07/05 10:30:49;;;;;;;3.17;0.70;;;;;;;17.43;69.14;100901.13;5013377;28;96712;-26
2023/07/05 10:33:20;;;;;;;4.95;0.98;;;;;;;17.43;69.87;100915.66;5013298;28;96848;-26
2023/07/05 10:36:01;;;;;;;2.28;0.75;;;;;;;17.77;68.53;100918.97;5014040;28;99552;-27
2023/07/05 10:38:29;;;;;;;2.55;0.93;;;;;;;18.00;65.98;100914.16;5014319;28;99084;-28
2023/07/05 10:41:19;;;;;;;2.45;0.75;;;;;;;18.06;66.28;100931.03;5013077;28;96662;-26
2023/07/05 10:43:57;;;;;;;3.00;1.00;;;;;;;18.28;63.69;100929.91;5009730;28;98351;-26
2023/07/05 10:46:25;;;;;;;0.75;0.47;;;;;;;18.39;66.01;100921.56;5013859;28;98116;-26
2023/07/05 10:48:52;;;;;;;1.90;0.70;;;;;;;18.39;64.92;100940.75;5012814;28;101555;-27
2023/07/05 10:51:21;;;;;;;2.55;0.77;;;;;;;18.55;65.74;100945.69;5014230;28;96670;-26
2023/07/05 10:53:55;;;;;;;2.05;0.80;;;;;;;18.39;65.07;100949.00;5012984;28;96936;-27
2023/07/05 10:56:24;;;;;;;1.88;0.65;;;;;;;18.46;63.80;100947.41;5012833;28;100845;-27
2023/07/05 10:59:04;;;;;;;4.07;1.17;;;;;;;18.38;64.81;100961.00;5012497;28;100843;-26
2023/07/05 11:01:47;;;;;;;2.35;0.98;;;;;;;18.14;65.12;100969.56;5012874;28;96656;-26
2023/07/05 11:04:18;;;;;;;3.80;0.73;;;;;;;17.96;64.79;100977.63;5013263;28;96690;-27
2023/07/05 11:06:46;;;;;;;1.08;0.68;;;;;;;17.74;64.28;100965.81;5012650;28;101594;-27
2023/07/05 11:09:12;;;;;;;1.95;0.77;;;;;;;17.67;66.23;100967.38;5013797;28;97902;-26
2023/07/05 11:11:42;;;;;;;1.90;0.93;;;;;;;18.14;65.14;100986.91;5013528;28;96628;-26
2023/07/05 11:14:12;;;;;;;1.30;0.50;;;;;;;18.53;64.97;100975.16;5012736;28;96887;-26
2023/07/05 11:16:41;;;;;;;1.70;0.63;;;;;;;18.60;63.57;100992.78;5012309;28;100541;-28
2023/07/05 11:19:11;;;;;;;1.88;0.88;;;;;;;18.24;64.41;100998.78;5012354;28;101084;-26
2023/07/05 11:21:38;;;;;;;1.42;0.38;;;;;;;18.14;64.11;101007.97;5012470;28;96611;-26
2023/07/05 11:24:09;;;;;;;4.03;1.20;;;;;;;18.50;64.02;101009.22;5003622;28;96820;-27
2023/07/05 11:26:43;;;;;;;3.63;0.50;;;;;;;18.38;61.64;101010.34;4990918;28;101056;-26
2023/07/05 11:29:26;;;;;;;2.78;0.70;;;;;;;18.43;63.23;101024.50;4993169;28;98442;-26
2023/07/05 11:31:52;;;;;;;2.38;0.65;;;;;;;18.68;62.03;101023.09;4993723;28;96739;-26
2023/07/05 11:34:23;;;;;;;3.92;1.02;;;;;;;18.50;62.54;101024.81;4993769;28;96726;-26
2023/07/05 11:37:06;;;;;;;4.07;0.93;;;;;;;18.80;62.29;101021.97;4992361;28;99003;-26
2023/07/05 11:39:38;;;;;;;5.35;0.80;;;;;;;18.79;62.48;101030.38;4991686;28;100803;-26
2023/07/05 11:42:16;;;;;;;3.22;0.88;;;;;;;18.56;62.32;101016.88;4992149;28;96608;-26
2023/07/05 11:45:03;;;;;;;0.80;0.50;;;;;;;18.27;62.94;101029.66;4992105;28;96935;-26
2023/07/05 11:47:32;;;;;;;4.40;1.15;;;;;;;18.07;64.25;101058.88;4992078;28;101505;-26
2023/07/05 11:50:08;;;;;;;1.92;0.77;;;;;;;17.85;65.73;101054.44;4993225;28;99294;-27
2023/07/05 11:52:41;;;;;;;3.35;1.13;;;;;;;18.01;66.83;101044.72;4992071;28;96605;-26
2023/07/05 11:55:19;;;;;;;3.88;1.13;;;;;;;18.19;67.42;101058.66;4992037;28;96778;-26
2023/07/05 11:58:16;;;;;;;1.95;0.70;;;;;;;18.10;65.57;101062.22;4993076;28;98043;-27